sensor_id;sensor_type;location;lat;lon;timestamp;temperature;humidity
5334;DHT22;2689;50.954;7.116;2022-11-15T00:02:22;11.40;99.90
5334;DHT22;2689;50.954;7.116;2022-11-15T00:04:49;11.50;99.90
5334;DHT22;2689;50.954;7.116;2022-11-15T00:07:16;11.50;99.90
5334;DHT22;2689;50.954;7.116;2022-11-15T00:09:43;11.50;99.90
5334;DHT22;2689;50.954;7.116;2022-11-15T00:12:11;11.50;99.90
5334;DHT22;2689;50.954;7.116;2022-11-15T00:14:37;11.60;99.90
5334;DHT22;2689;50.954;7.116;2022-11-15T00:17:04;11.60;99.90
5334;DHT22;2689;50.954;7.116;2022-11-15T00:19:31;11.60;99.90
5334;DHT22;2689;50.954;7.116;2022-11-15T00:21:58;11.60;99.90
5334;DHT22;2689;50.954;7.116;2022-11-15T00:24:25;11.70;99.90
5334;DHT22;2689;50.954;7.116;2022-11-15T00:26:52;11.70;99.90
5334;DHT22;2689;50.954;7.116;2022-11-15T00:29:20;11.70;99.90
5334;DHT22;2689;50.954;7.116;2022-11-15T00:31:47;11.80;99.90
5334;DHT22;2689;50.954;7.116;2022-11-15T00:34:14;11.90;99.90
5334;DHT22;2689;50.954;7.116;2022-11-15T00:36:40;11.90;99.90
5334;DHT22;2689;50.954;7.116;2022-11-15T00:39:07;11.90;99.90
5334;DHT22;2689;50.954;7.116;2022-11-15T00:41:34;11.90;99.90
5334;DHT22;2689;50.954;7.116;2022-11-15T00:44:01;11.90;99.90
5334;DHT22;2689;50.954;7.116;2022-11-15T00:46:29;12.00;99.90
5334;DHT22;2689;50.954;7.116;2022-11-15T00:48:56;12.00;99.90
5334;DHT22;2689;50.954;7.116;2022-11-15T00:51:22;12.00;99.90
5334;DHT22;2689;50.954;7.116;2022-11-15T00:53:49;12.00;99.90
5334;DHT22;2689;50.954;7.116;2022-11-15T00:56:16;12.00;99.90
5334;DHT22;2689;50.954;7.116;2022-11-15T00:58:43;12.10;99.90
5334;DHT22;2689;50.954;7.116;2022-11-15T01:01:11;12.10;99.90
5334;DHT22;2689;50.954;7.116;2022-11-15T01:03:41;12.20;99.90
5334;DHT22;2689;50.954;7.116;2022-11-15T01:06:08;12.20;99.90
5334;DHT22;2689;50.954;7.116;2022-11-15T01:08:36;12.20;99.90
5334;DHT22;2689;50.954;7.116;2022-11-15T01:11:04;12.20;99.90
5334;DHT22;2689;50.954;7.116;2022-11-15T01:13:31;12.20;99.90
5334;DHT22;2689;50.954;7.116;2022-11-15T01:15:59;12.30;99.90
5334;DHT22;2689;50.954;7.116;2022-11-15T01:18:26;12.40;99.90
5334;DHT22;2689;50.954;7.116;2022-11-15T01:20:55;12.40;99.90
5334;DHT22;2689;50.954;7.116;2022-11-15T01:23:22;12.40;99.90
5334;DHT22;2689;50.954;7.116;2022-11-15T01:25:49;12.40;99.90
5334;DHT22;2689;50.954;7.116;2022-11-15T01:28:16;12.50;99.90
5334;DHT22;2689;50.954;7.116;2022-11-15T01:30:42;12.50;99.90
5334;DHT22;2689;50.954;7.116;2022-11-15T01:33:09;12.60;99.90
5334;DHT22;2689;50.954;7.116;2022-11-15T01:35:38;12.60;99.90
5334;DHT22;2689;50.954;7.116;2022-11-15T01:38:07;12.60;99.90
5334;DHT22;2689;50.954;7.116;2022-11-15T01:40:34;12.60;99.90
5334;DHT22;2689;50.954;7.116;2022-11-15T01:43:20;12.70;99.90
5334;DHT22;2689;50.954;7.116;2022-11-15T01:45:50;12.70;99.90
5334;DHT22;2689;50.954;7.116;2022-11-15T01:48:19;12.70;99.90
5334;DHT22;2689;50.954;7.116;2022-11-15T01:50:46;12.70;99.90
5334;DHT22;2689;50.954;7.116;2022-11-15T01:53:15;12.70;99.90
5334;DHT22;2689;50.954;7.116;2022-11-15T01:55:42;12.80;99.90
5334;DHT22;2689;50.954;7.116;2022-11-15T01:58:08;12.80;99.90
5334;DHT22;2689;50.954;7.116;2022-11-15T02:00:36;12.80;99.90
5334;DHT22;2689;50.954;7.116;2022-11-15T02:03:03;12.80;99.90
5334;DHT22;2689;50.954;7.116;2022-11-15T02:05:30;12.80;99.90
5334;DHT22;2689;50.954;7.116;2022-11-15T02:07:57;12.80;99.90
5334;DHT22;2689;50.954;7.116;2022-11-15T02:10:25;12.80;99.90
5334;DHT22;2689;50.954;7.116;2022-11-15T02:12:52;12.80;99.90
5334;DHT22;2689;50.954;7.116;2022-11-15T02:15:20;12.70;99.90
5334;DHT22;2689;50.954;7.116;2022-11-15T02:18:04;12.70;99.90
5334;DHT22;2689;50.954;7.116;2022-11-15T02:20:47;12.70;99.90
5334;DHT22;2689;50.954;7.116;2022-11-15T02:27:00;12.80;99.90
5334;DHT22;2689;50.954;7.116;2022-11-15T02:29:56;12.80;99.90
5334;DHT22;2689;50.954;7.116;2022-11-15T02:32:33;12.80;99.90
5334;DHT22;2689;50.954;7.116;2022-11-15T02:35:07;12.80;99.90
5334;DHT22;2689;50.954;7.116;2022-11-15T02:37:42;12.80;99.90
5334;DHT22;2689;50.954;7.116;2022-11-15T02:40:15;12.90;99.90
5334;DHT22;2689;50.954;7.116;2022-11-15T02:42:50;12.90;99.90
5334;DHT22;2689;50.954;7.116;2022-11-15T02:45:40;12.90;99.90
5334;DHT22;2689;50.954;7.116;2022-11-15T02:48:12;13.00;99.90
5334;DHT22;2689;50.954;7.116;2022-11-15T02:50:39;12.90;99.90
5334;DHT22;2689;50.954;7.116;2022-11-15T02:53:08;12.90;99.90
5334;DHT22;2689;50.954;7.116;2022-11-15T02:55:37;12.90;99.90
5334;DHT22;2689;50.954;7.116;2022-11-15T02:58:19;12.90;99.90
5334;DHT22;2689;50.954;7.116;2022-11-15T03:00:53;12.90;99.90
5334;DHT22;2689;50.954;7.116;2022-11-15T03:03:45;13.00;99.90
5334;DHT22;2689;50.954;7.116;2022-11-15T03:06:20;13.00;99.90
5334;DHT22;2689;50.954;7.116;2022-11-15T03:08:57;13.00;99.90
5334;DHT22;2689;50.954;7.116;2022-11-15T03:11:26;13.00;99.90
5334;DHT22;2689;50.954;7.116;2022-11-15T03:13:58;13.00;99.90
5334;DHT22;2689;50.954;7.116;2022-11-15T03:16:28;13.00;99.90
5334;DHT22;2689;50.954;7.116;2022-11-15T03:19:04;13.00;99.90
5334;DHT22;2689;50.954;7.116;2022-11-15T03:21:34;13.00;99.90
5334;DHT22;2689;50.954;7.116;2022-11-15T03:24:05;13.00;99.90
5334;DHT22;2689;50.954;7.116;2022-11-15T03:26:34;13.00;99.90
5334;DHT22;2689;50.954;7.116;2022-11-15T03:29:04;13.00;99.90
5334;DHT22;2689;50.954;7.116;2022-11-15T03:31:35;13.00;99.90
5334;DHT22;2689;50.954;7.116;2022-11-15T03:34:20;13.00;99.90
5334;DHT22;2689;50.954;7.116;2022-11-15T03:36:50;13.00;99.90
5334;DHT22;2689;50.954;7.116;2022-11-15T03:39:17;13.00;99.90
5334;DHT22;2689;50.954;7.116;2022-11-15T03:41:48;13.00;99.90
5334;DHT22;2689;50.954;7.116;2022-11-15T03:44:23;13.00;99.90
5334;DHT22;2689;50.954;7.116;2022-11-15T03:46:57;13.00;99.90
5334;DHT22;2689;50.954;7.116;2022-11-15T03:49:30;13.00;99.90
5334;DHT22;2689;50.954;7.116;2022-11-15T03:51:59;13.00;99.90
5334;DHT22;2689;50.954;7.116;2022-11-15T03:54:27;13.10;99.90
5334;DHT22;2689;50.954;7.116;2022-11-15T03:56:53;13.10;99.90
5334;DHT22;2689;50.954;7.116;2022-11-15T03:59:20;13.10;99.90
5334;DHT22;2689;50.954;7.116;2022-11-15T04:01:47;13.10;99.90
5334;DHT22;2689;50.954;7.116;2022-11-15T04:04:14;13.10;99.90
5334;DHT22;2689;50.954;7.116;2022-11-15T04:06:42;13.10;99.90
5334;DHT22;2689;50.954;7.116;2022-11-15T04:09:09;13.20;99.90
5334;DHT22;2689;50.954;7.116;2022-11-15T04:11:35;13.20;99.90
5334;DHT22;2689;50.954;7.116;2022-11-15T04:14:02;13.20;99.90
5334;DHT22;2689;50.954;7.116;2022-11-15T04:16:29;13.20;99.90
5334;DHT22;2689;50.954;7.116;2022-11-15T04:18:56;13.20;99.90
5334;DHT22;2689;50.954;7.116;2022-11-15T04:21:36;13.20;99.90
5334;DHT22;2689;50.954;7.116;2022-11-15T04:24:22;13.20;99.90
5334;DHT22;2689;50.954;7.116;2022-11-15T04:26:49;13.20;99.90
5334;DHT22;2689;50.954;7.116;2022-11-15T04:29:16;13.30;99.90
5334;DHT22;2689;50.954;7.116;2022-11-15T04:32:00;13.30;99.90
5334;DHT22;2689;50.954;7.116;2022-11-15T04:34:27;13.30;99.90
5334;DHT22;2689;50.954;7.116;2022-11-15T04:36:54;13.30;99.90
5334;DHT22;2689;50.954;7.116;2022-11-15T04:39:42;13.30;99.90
5334;DHT22;2689;50.954;7.116;2022-11-15T04:42:10;13.20;99.90
5334;DHT22;2689;50.954;7.116;2022-11-15T04:44:37;13.20;99.90
5334;DHT22;2689;50.954;7.116;2022-11-15T04:47:04;13.20;99.90
5334;DHT22;2689;50.954;7.116;2022-11-15T04:49:31;13.20;99.90
5334;DHT22;2689;50.954;7.116;2022-11-15T04:51:58;13.20;99.90
5334;DHT22;2689;50.954;7.116;2022-11-15T04:54:25;13.20;99.90
5334;DHT22;2689;50.954;7.116;2022-11-15T04:56:53;13.20;99.90
5334;DHT22;2689;50.954;7.116;2022-11-15T04:59:19;13.20;99.90
5334;DHT22;2689;50.954;7.116;2022-11-15T05:01:46;13.10;99.90
5334;DHT22;2689;50.954;7.116;2022-11-15T05:04:13;13.10;99.90
5334;DHT22;2689;50.954;7.116;2022-11-15T05:06:46;13.10;99.90
5334;DHT22;2689;50.954;7.116;2022-11-15T05:09:12;13.00;99.90
5334;DHT22;2689;50.954;7.116;2022-11-15T05:11:40;13.00;99.90
5334;DHT22;2689;50.954;7.116;2022-11-15T05:14:08;13.00;99.90
5334;DHT22;2689;50.954;7.116;2022-11-15T05:16:35;13.00;99.90
5334;DHT22;2689;50.954;7.116;2022-11-15T05:19:01;13.00;99.90
5334;DHT22;2689;50.954;7.116;2022-11-15T05:21:28;13.00;99.90
5334;DHT22;2689;50.954;7.116;2022-11-15T05:23:55;13.00;99.90
5334;DHT22;2689;50.954;7.116;2022-11-15T05:26:22;13.00;99.90
5334;DHT22;2689;50.954;7.116;2022-11-15T05:28:52;13.00;99.90
5334;DHT22;2689;50.954;7.116;2022-11-15T05:31:21;13.00;99.90
5334;DHT22;2689;50.954;7.116;2022-11-15T05:33:49;13.00;99.90
5334;DHT22;2689;50.954;7.116;2022-11-15T05:36:19;13.00;99.90
5334;DHT22;2689;50.954;7.116;2022-11-15T05:38:47;13.00;99.90
5334;DHT22;2689;50.954;7.116;2022-11-15T05:41:15;13.00;99.90
5334;DHT22;2689;50.954;7.116;2022-11-15T05:43:43;13.00;99.90
5334;DHT22;2689;50.954;7.116;2022-11-15T05:46:12;13.00;99.90
5334;DHT22;2689;50.954;7.116;2022-11-15T05:48:43;13.00;99.90
5334;DHT22;2689;50.954;7.116;2022-11-15T05:51:12;12.90;99.90
5334;DHT22;2689;50.954;7.116;2022-11-15T05:53:40;12.90;99.90
5334;DHT22;2689;50.954;7.116;2022-11-15T05:56:09;12.90;99.90
5334;DHT22;2689;50.954;7.116;2022-11-15T05:58:36;12.90;99.90
5334;DHT22;2689;50.954;7.116;2022-11-15T06:01:04;12.80;99.90
5334;DHT22;2689;50.954;7.116;2022-11-15T06:03:31;12.70;99.90
5334;DHT22;2689;50.954;7.116;2022-11-15T06:05:59;12.70;99.90
5334;DHT22;2689;50.954;7.116;2022-11-15T06:08:27;12.70;99.90
5334;DHT22;2689;50.954;7.116;2022-11-15T06:10:53;12.60;99.90
5334;DHT22;2689;50.954;7.116;2022-11-15T06:13:20;12.60;99.90
5334;DHT22;2689;50.954;7.116;2022-11-15T06:15:47;12.50;99.90
5334;DHT22;2689;50.954;7.116;2022-11-15T06:18:14;12.40;99.90
5334;DHT22;2689;50.954;7.116;2022-11-15T06:20:41;12.40;99.90
5334;DHT22;2689;50.954;7.116;2022-11-15T06:23:09;12.30;99.90
5334;DHT22;2689;50.954;7.116;2022-11-15T06:25:36;12.30;99.90
5334;DHT22;2689;50.954;7.116;2022-11-15T06:28:03;12.30;99.90
5334;DHT22;2689;50.954;7.116;2022-11-15T06:30:30;12.30;99.90
5334;DHT22;2689;50.954;7.116;2022-11-15T06:33:01;12.30;99.90
5334;DHT22;2689;50.954;7.116;2022-11-15T06:35:28;12.20;99.90
5334;DHT22;2689;50.954;7.116;2022-11-15T06:37:56;12.20;99.90
5334;DHT22;2689;50.954;7.116;2022-11-15T06:40:24;12.20;99.90
5334;DHT22;2689;50.954;7.116;2022-11-15T06:42:50;12.10;99.90
5334;DHT22;2689;50.954;7.116;2022-11-15T06:45:17;12.10;99.90
5334;DHT22;2689;50.954;7.116;2022-11-15T06:47:44;12.10;99.90
5334;DHT22;2689;50.954;7.116;2022-11-15T06:50:12;12.10;99.90
5334;DHT22;2689;50.954;7.116;2022-11-15T06:52:38;12.10;99.90
5334;DHT22;2689;50.954;7.116;2022-11-15T06:55:07;12.00;99.90
5334;DHT22;2689;50.954;7.116;2022-11-15T06:57:35;12.00;99.90
5334;DHT22;2689;50.954;7.116;2022-11-15T07:00:03;12.00;99.90
5334;DHT22;2689;50.954;7.116;2022-11-15T07:02:30;11.90;99.90
5334;DHT22;2689;50.954;7.116;2022-11-15T07:04:57;11.90;99.90
5334;DHT22;2689;50.954;7.116;2022-11-15T07:07:23;11.80;99.90
5334;DHT22;2689;50.954;7.116;2022-11-15T07:09:50;11.90;99.90
5334;DHT22;2689;50.954;7.116;2022-11-15T07:12:17;11.80;99.90
5334;DHT22;2689;50.954;7.116;2022-11-15T07:14:45;11.90;99.90
5334;DHT22;2689;50.954;7.116;2022-11-15T07:17:12;11.80;99.90
5334;DHT22;2689;50.954;7.116;2022-11-15T07:19:39;11.80;99.90
5334;DHT22;2689;50.954;7.116;2022-11-15T07:22:06;11.80;99.90
5334;DHT22;2689;50.954;7.116;2022-11-15T07:24:33;11.80;99.90
5334;DHT22;2689;50.954;7.116;2022-11-15T07:27:00;11.80;99.90
5334;DHT22;2689;50.954;7.116;2022-11-15T07:29:26;11.80;99.90
5334;DHT22;2689;50.954;7.116;2022-11-15T07:31:55;11.80;99.90
5334;DHT22;2689;50.954;7.116;2022-11-15T07:34:22;11.90;99.90
5334;DHT22;2689;50.954;7.116;2022-11-15T07:36:49;11.90;99.90
5334;DHT22;2689;50.954;7.116;2022-11-15T07:39:16;11.90;99.90
5334;DHT22;2689;50.954;7.116;2022-11-15T07:41:43;12.00;99.90
5334;DHT22;2689;50.954;7.116;2022-11-15T07:44:11;12.00;99.90
5334;DHT22;2689;50.954;7.116;2022-11-15T07:46:38;12.00;99.90
5334;DHT22;2689;50.954;7.116;2022-11-15T07:49:07;12.10;99.90
5334;DHT22;2689;50.954;7.116;2022-11-15T07:51:34;12.20;99.90
5334;DHT22;2689;50.954;7.116;2022-11-15T07:54:01;12.20;99.90
5334;DHT22;2689;50.954;7.116;2022-11-15T07:56:27;12.30;99.90
5334;DHT22;2689;50.954;7.116;2022-11-15T07:58:54;12.30;99.90
5334;DHT22;2689;50.954;7.116;2022-11-15T08:01:22;12.40;99.90
5334;DHT22;2689;50.954;7.116;2022-11-15T08:14:06;12.80;99.90
5334;DHT22;2689;50.954;7.116;2022-11-15T08:16:33;12.80;99.90
5334;DHT22;2689;50.954;7.116;2022-11-15T08:19:00;12.90;99.90
5334;DHT22;2689;50.954;7.116;2022-11-15T08:21:28;13.00;99.90
5334;DHT22;2689;50.954;7.116;2022-11-15T08:23:58;13.10;99.90
5334;DHT22;2689;50.954;7.116;2022-11-15T08:26:26;13.20;99.90
5334;DHT22;2689;50.954;7.116;2022-11-15T08:28:55;13.30;99.90
5334;DHT22;2689;50.954;7.116;2022-11-15T08:31:23;13.30;99.90
5334;DHT22;2689;50.954;7.116;2022-11-15T08:33:50;13.50;99.90
5334;DHT22;2689;50.954;7.116;2022-11-15T08:36:17;13.60;99.90
5334;DHT22;2689;50.954;7.116;2022-11-15T08:38:44;13.70;99.90
5334;DHT22;2689;50.954;7.116;2022-11-15T08:41:13;13.80;99.90
5334;DHT22;2689;50.954;7.116;2022-11-15T08:43:40;13.90;99.90
5334;DHT22;2689;50.954;7.116;2022-11-15T08:46:09;14.10;99.90
5334;DHT22;2689;50.954;7.116;2022-11-15T08:48:39;14.30;99.90
5334;DHT22;2689;50.954;7.116;2022-11-15T08:51:06;14.50;99.90
5334;DHT22;2689;50.954;7.116;2022-11-15T08:53:34;14.80;99.90
5334;DHT22;2689;50.954;7.116;2022-11-15T08:56:01;15.10;99.90
5334;DHT22;2689;50.954;7.116;2022-11-15T08:58:28;15.40;99.90
5334;DHT22;2689;50.954;7.116;2022-11-15T09:00:55;15.70;99.90
5334;DHT22;2689;50.954;7.116;2022-11-15T09:03:22;15.80;99.50
5334;DHT22;2689;50.954;7.116;2022-11-15T09:05:55;15.90;99.40
5334;DHT22;2689;50.954;7.116;2022-11-15T09:08:22;16.00;99.30
5334;DHT22;2689;50.954;7.116;2022-11-15T09:10:50;16.20;98.80
5334;DHT22;2689;50.954;7.116;2022-11-15T09:13:17;16.20;98.30
5334;DHT22;2689;50.954;7.116;2022-11-15T09:15:44;16.10;98.20
5334;DHT22;2689;50.954;7.116;2022-11-15T09:18:11;16.00;98.60
5334;DHT22;2689;50.954;7.116;2022-11-15T09:20:38;16.00;98.50
5334;DHT22;2689;50.954;7.116;2022-11-15T09:23:06;15.90;98.40
5334;DHT22;2689;50.954;7.116;2022-11-15T09:25:33;15.80;97.80
5334;DHT22;2689;50.954;7.116;2022-11-15T09:28:00;15.70;97.50
5334;DHT22;2689;50.954;7.116;2022-11-15T09:30:27;15.60;97.90
5334;DHT22;2689;50.954;7.116;2022-11-15T09:32:54;15.50;97.40
5334;DHT22;2689;50.954;7.116;2022-11-15T09:35:21;15.40;97.90
5334;DHT22;2689;50.954;7.116;2022-11-15T09:37:47;15.40;98.10
5334;DHT22;2689;50.954;7.116;2022-11-15T09:40:24;15.30;98.00
5334;DHT22;2689;50.954;7.116;2022-11-15T09:43:09;15.30;98.10
5334;DHT22;2689;50.954;7.116;2022-11-15T09:45:49;15.30;97.50
5334;DHT22;2689;50.954;7.116;2022-11-15T09:48:34;15.30;97.70
5334;DHT22;2689;50.954;7.116;2022-11-15T09:51:12;15.30;98.00
5334;DHT22;2689;50.954;7.116;2022-11-15T09:53:46;15.30;97.50
5334;DHT22;2689;50.954;7.116;2022-11-15T09:56:19;15.30;97.00
5334;DHT22;2689;50.954;7.116;2022-11-15T09:58:54;15.30;96.30
5334;DHT22;2689;50.954;7.116;2022-11-15T10:01:34;15.30;96.60
5334;DHT22;2689;50.954;7.116;2022-11-15T10:04:03;15.30;96.60
5334;DHT22;2689;50.954;7.116;2022-11-15T10:06:31;15.30;96.20
5334;DHT22;2689;50.954;7.116;2022-11-15T10:09:02;15.30;96.00
5334;DHT22;2689;50.954;7.116;2022-11-15T10:11:35;15.30;95.50
5334;DHT22;2689;50.954;7.116;2022-11-15T10:14:08;15.20;95.60
5334;DHT22;2689;50.954;7.116;2022-11-15T10:17:21;15.20;96.40
5334;DHT22;2689;50.954;7.116;2022-11-15T10:19:59;15.30;96.20
5334;DHT22;2689;50.954;7.116;2022-11-15T10:22:31;15.30;95.80
5334;DHT22;2689;50.954;7.116;2022-11-15T10:25:21;15.40;95.70
5334;DHT22;2689;50.954;7.116;2022-11-15T10:27:56;15.40;95.60
5334;DHT22;2689;50.954;7.116;2022-11-15T10:30:29;15.50;95.50
5334;DHT22;2689;50.954;7.116;2022-11-15T10:32:57;15.50;95.30
5334;DHT22;2689;50.954;7.116;2022-11-15T10:35:28;15.50;94.40
5334;DHT22;2689;50.954;7.116;2022-11-15T10:38:05;15.50;94.40
5334;DHT22;2689;50.954;7.116;2022-11-15T10:40:33;15.60;94.00
5334;DHT22;2689;50.954;7.116;2022-11-15T10:43:15;15.60;93.60
5334;DHT22;2689;50.954;7.116;2022-11-15T10:45:42;15.60;93.20
5334;DHT22;2689;50.954;7.116;2022-11-15T10:48:24;15.60;93.30
5334;DHT22;2689;50.954;7.116;2022-11-15T10:50:52;15.60;93.00
5334;DHT22;2689;50.954;7.116;2022-11-15T10:53:27;15.60;92.20
5334;DHT22;2689;50.954;7.116;2022-11-15T10:55:59;15.60;91.80
5334;DHT22;2689;50.954;7.116;2022-11-15T10:58:34;15.60;91.30
5334;DHT22;2689;50.954;7.116;2022-11-15T11:01:10;15.70;91.20
5334;DHT22;2689;50.954;7.116;2022-11-15T11:03:39;15.70;90.40
5334;DHT22;2689;50.954;7.116;2022-11-15T11:06:09;15.80;90.60
5334;DHT22;2689;50.954;7.116;2022-11-15T11:08:37;15.80;90.00
5334;DHT22;2689;50.954;7.116;2022-11-15T11:11:04;15.90;90.10
5334;DHT22;2689;50.954;7.116;2022-11-15T11:13:35;16.00;90.00
5334;DHT22;2689;50.954;7.116;2022-11-15T11:16:27;16.00;89.30
5334;DHT22;2689;50.954;7.116;2022-11-15T11:19:17;16.00;90.20
5334;DHT22;2689;50.954;7.116;2022-11-15T11:21:51;16.00;86.50
5334;DHT22;2689;50.954;7.116;2022-11-15T11:24:25;16.00;85.40
5334;DHT22;2689;50.954;7.116;2022-11-15T11:27:16;16.10;84.90
5334;DHT22;2689;50.954;7.116;2022-11-15T11:29:57;16.20;84.40
5334;DHT22;2689;50.954;7.116;2022-11-15T11:32:39;16.20;84.70
5334;DHT22;2689;50.954;7.116;2022-11-15T11:35:12;16.20;83.50
5334;DHT22;2689;50.954;7.116;2022-11-15T11:37:56;16.20;83.50
5334;DHT22;2689;50.954;7.116;2022-11-15T11:40:30;16.20;82.50
5334;DHT22;2689;50.954;7.116;2022-11-15T11:43:04;16.10;82.40
5334;DHT22;2689;50.954;7.116;2022-11-15T11:46:04;16.10;82.30
5334;DHT22;2689;50.954;7.116;2022-11-15T11:48:41;16.00;82.30
5334;DHT22;2689;50.954;7.116;2022-11-15T11:51:14;16.00;83.40
5334;DHT22;2689;50.954;7.116;2022-11-15T11:53:49;16.00;83.70
5334;DHT22;2689;50.954;7.116;2022-11-15T11:56:24;16.00;81.60
5334;DHT22;2689;50.954;7.116;2022-11-15T11:58:54;16.00;82.10
5334;DHT22;2689;50.954;7.116;2022-11-15T12:01:25;16.10;82.10
5334;DHT22;2689;50.954;7.116;2022-11-15T12:03:56;16.10;82.00
5334;DHT22;2689;50.954;7.116;2022-11-15T12:06:31;16.10;82.20
5334;DHT22;2689;50.954;7.116;2022-11-15T12:09:02;16.10;82.70
5334;DHT22;2689;50.954;7.116;2022-11-15T12:11:37;16.10;83.20
5334;DHT22;2689;50.954;7.116;2022-11-15T12:14:16;16.10;83.00
5334;DHT22;2689;50.954;7.116;2022-11-15T12:16:46;16.10;82.00
5334;DHT22;2689;50.954;7.116;2022-11-15T12:19:13;16.10;82.30
5334;DHT22;2689;50.954;7.116;2022-11-15T12:21:45;16.10;82.80
5334;DHT22;2689;50.954;7.116;2022-11-15T12:24:16;16.10;82.80
5334;DHT22;2689;50.954;7.116;2022-11-15T12:26:49;16.20;83.90
5334;DHT22;2689;50.954;7.116;2022-11-15T12:29:23;16.40;83.80
5334;DHT22;2689;50.954;7.116;2022-11-15T12:31:53;16.50;83.60
5334;DHT22;2689;50.954;7.116;2022-11-15T12:34:45;16.50;84.20
5334;DHT22;2689;50.954;7.116;2022-11-15T12:40:21;16.70;85.30
5334;DHT22;2689;50.954;7.116;2022-11-15T12:43:32;16.80;85.20
5334;DHT22;2689;50.954;7.116;2022-11-15T12:46:02;16.80;85.40
5334;DHT22;2689;50.954;7.116;2022-11-15T12:48:58;16.90;86.10
5334;DHT22;2689;50.954;7.116;2022-11-15T12:54:59;16.80;86.60
5334;DHT22;2689;50.954;7.116;2022-11-15T12:57:39;16.70;87.50
5334;DHT22;2689;50.954;7.116;2022-11-15T13:03:26;16.70;89.00
5334;DHT22;2689;50.954;7.116;2022-11-15T13:06:33;16.60;88.70
5334;DHT22;2689;50.954;7.116;2022-11-15T13:08:57;16.50;89.70
5334;DHT22;2689;50.954;7.116;2022-11-15T13:11:47;16.30;89.80
5334;DHT22;2689;50.954;7.116;2022-11-15T13:14:42;16.10;90.30
5334;DHT22;2689;50.954;7.116;2022-11-15T13:17:40;16.00;91.00
5334;DHT22;2689;50.954;7.116;2022-11-15T13:20:21;16.00;90.90
5334;DHT22;2689;50.954;7.116;2022-11-15T13:22:51;16.00;91.40
5334;DHT22;2689;50.954;7.116;2022-11-15T13:28:24;16.00;91.20
5334;DHT22;2689;50.954;7.116;2022-11-15T13:30:55;16.00;91.50
5334;DHT22;2689;50.954;7.116;2022-11-15T13:33:31;15.90;91.90
5334;DHT22;2689;50.954;7.116;2022-11-15T13:36:02;15.80;91.90
5334;DHT22;2689;50.954;7.116;2022-11-15T13:38:53;15.80;92.00
5334;DHT22;2689;50.954;7.116;2022-11-15T13:41:24;15.80;92.20
5334;DHT22;2689;50.954;7.116;2022-11-15T13:43:52;15.60;92.40
5334;DHT22;2689;50.954;7.116;2022-11-15T13:46:21;15.60;92.40
5334;DHT22;2689;50.954;7.116;2022-11-15T13:52:23;15.60;92.90
5334;DHT22;2689;50.954;7.116;2022-11-15T14:05:26;15.40;93.40
5334;DHT22;2689;50.954;7.116;2022-11-15T14:07:54;15.40;93.80
5334;DHT22;2689;50.954;7.116;2022-11-15T14:10:31;15.30;93.90
5334;DHT22;2689;50.954;7.116;2022-11-15T14:12:59;15.30;94.10
5334;DHT22;2689;50.954;7.116;2022-11-15T14:15:30;15.30;94.20
5334;DHT22;2689;50.954;7.116;2022-11-15T14:17:58;15.30;94.40
5334;DHT22;2689;50.954;7.116;2022-11-15T14:20:29;15.30;94.60
5334;DHT22;2689;50.954;7.116;2022-11-15T14:22:59;15.30;94.70
5334;DHT22;2689;50.954;7.116;2022-11-15T14:25:34;15.30;94.80
5334;DHT22;2689;50.954;7.116;2022-11-15T14:28:14;15.20;94.80
5334;DHT22;2689;50.954;7.116;2022-11-15T14:30:43;15.20;95.00
5334;DHT22;2689;50.954;7.116;2022-11-15T14:33:22;15.10;95.10
5334;DHT22;2689;50.954;7.116;2022-11-15T14:35:52;15.10;95.20
5334;DHT22;2689;50.954;7.116;2022-11-15T14:38:19;15.10;95.30
5334;DHT22;2689;50.954;7.116;2022-11-15T14:40:47;15.00;95.30
5334;DHT22;2689;50.954;7.116;2022-11-15T14:43:14;15.10;95.50
5334;DHT22;2689;50.954;7.116;2022-11-15T14:45:41;15.00;95.60
5334;DHT22;2689;50.954;7.116;2022-11-15T14:48:09;15.00;95.60
5334;DHT22;2689;50.954;7.116;2022-11-15T14:50:36;15.00;95.80
5334;DHT22;2689;50.954;7.116;2022-11-15T14:53:05;15.00;95.70
5334;DHT22;2689;50.954;7.116;2022-11-15T14:55:34;15.00;95.70
5334;DHT22;2689;50.954;7.116;2022-11-15T14:58:02;15.00;95.80
5334;DHT22;2689;50.954;7.116;2022-11-15T15:00:30;15.00;95.90
5334;DHT22;2689;50.954;7.116;2022-11-15T15:02:57;14.90;96.00
5334;DHT22;2689;50.954;7.116;2022-11-15T15:05:27;14.90;96.10
5334;DHT22;2689;50.954;7.116;2022-11-15T15:07:56;14.90;96.10
5334;DHT22;2689;50.954;7.116;2022-11-15T15:10:25;14.90;96.30
5334;DHT22;2689;50.954;7.116;2022-11-15T15:12:54;14.90;96.20
5334;DHT22;2689;50.954;7.116;2022-11-15T15:15:25;14.80;96.30
5334;DHT22;2689;50.954;7.116;2022-11-15T15:17:52;14.70;96.40
5334;DHT22;2689;50.954;7.116;2022-11-15T15:20:19;14.70;96.70
5334;DHT22;2689;50.954;7.116;2022-11-15T15:22:46;14.60;96.90
5334;DHT22;2689;50.954;7.116;2022-11-15T15:25:21;14.60;97.00
5334;DHT22;2689;50.954;7.116;2022-11-15T15:27:50;14.60;97.10
5334;DHT22;2689;50.954;7.116;2022-11-15T15:30:17;14.50;97.30
5334;DHT22;2689;50.954;7.116;2022-11-15T15:32:44;14.40;97.50
5334;DHT22;2689;50.954;7.116;2022-11-15T15:35:12;14.40;97.60
5334;DHT22;2689;50.954;7.116;2022-11-15T15:37:40;14.40;97.60
5334;DHT22;2689;50.954;7.116;2022-11-15T15:40:14;14.40;97.60
5334;DHT22;2689;50.954;7.116;2022-11-15T15:42:42;14.40;97.70
5334;DHT22;2689;50.954;7.116;2022-11-15T15:45:11;14.40;97.70
5334;DHT22;2689;50.954;7.116;2022-11-15T15:47:49;14.40;97.90
5334;DHT22;2689;50.954;7.116;2022-11-15T15:50:22;14.40;98.00
5334;DHT22;2689;50.954;7.116;2022-11-15T15:52:51;14.40;98.10
5334;DHT22;2689;50.954;7.116;2022-11-15T15:55:18;14.40;98.20
5334;DHT22;2689;50.954;7.116;2022-11-15T15:57:46;14.40;98.20
5334;DHT22;2689;50.954;7.116;2022-11-15T16:00:15;14.30;98.50
5334;DHT22;2689;50.954;7.116;2022-11-15T16:02:42;14.30;98.60
5334;DHT22;2689;50.954;7.116;2022-11-15T16:05:10;14.30;98.70
5334;DHT22;2689;50.954;7.116;2022-11-15T16:07:38;14.30;98.80
5334;DHT22;2689;50.954;7.116;2022-11-15T16:10:21;14.30;98.90
5334;DHT22;2689;50.954;7.116;2022-11-15T16:12:48;14.30;98.90
5334;DHT22;2689;50.954;7.116;2022-11-15T16:15:17;14.30;98.90
5334;DHT22;2689;50.954;7.116;2022-11-15T16:17:47;14.30;99.00
5334;DHT22;2689;50.954;7.116;2022-11-15T16:20:31;14.30;99.00
5334;DHT22;2689;50.954;7.116;2022-11-15T16:22:59;14.30;99.00
5334;DHT22;2689;50.954;7.116;2022-11-15T16:25:26;14.30;99.00
5334;DHT22;2689;50.954;7.116;2022-11-15T16:27:53;14.30;99.10
5334;DHT22;2689;50.954;7.116;2022-11-15T16:30:22;14.40;99.00
5334;DHT22;2689;50.954;7.116;2022-11-15T16:32:49;14.40;99.00
5334;DHT22;2689;50.954;7.116;2022-11-15T16:35:17;14.40;98.70
5334;DHT22;2689;50.954;7.116;2022-11-15T16:37:44;14.40;98.70
5334;DHT22;2689;50.954;7.116;2022-11-15T16:40:27;14.40;98.70
5334;DHT22;2689;50.954;7.116;2022-11-15T16:42:55;14.40;98.80
5334;DHT22;2689;50.954;7.116;2022-11-15T16:45:24;14.40;98.80
5334;DHT22;2689;50.954;7.116;2022-11-15T16:47:53;14.40;98.70
5334;DHT22;2689;50.954;7.116;2022-11-15T16:50:21;14.40;98.80
5334;DHT22;2689;50.954;7.116;2022-11-15T16:52:51;14.40;98.80
5334;DHT22;2689;50.954;7.116;2022-11-15T16:55:19;14.40;98.90
5334;DHT22;2689;50.954;7.116;2022-11-15T16:57:48;14.40;98.90
5334;DHT22;2689;50.954;7.116;2022-11-15T17:00:16;14.40;99.00
5334;DHT22;2689;50.954;7.116;2022-11-15T17:02:46;14.40;98.90
5334;DHT22;2689;50.954;7.116;2022-11-15T17:05:14;14.40;98.90
5334;DHT22;2689;50.954;7.116;2022-11-15T17:07:51;14.40;98.90